Time;durP1;ratioP1;P1;durP2;ratioP2;P2;SDS_P1;SDS_P2;PMS_P1;PMS_P2;Temp;Humidity;BMP_temperature;BMP_pressure;BME280_temperature;BME280_humidity;BME280_pressure;Samples;Min_cycle;Max_cycle;Signal;HPM_P1;HPM_P2
2024/03/03 00:00:30;;;;;;;;;;;;;;;;;;5050306;28;19909;-79
2024/03/03 00:02:56;;;;;;;;;;;;;;;;;;5046654;28;19970;-79
2024/03/03 00:05:21;;;;;;;;;;;;;;;;;;5034667;28;19913;-77
2024/03/03 00:07:47;;;;;;;;;;;;;;;;;;5051401;28;19913;-77
2024/03/03 00:10:13;;;;;;;;;;;;;;;;;;5051557;28;19909;-80
2024/03/03 00:12:39;;;;;;;;;;;;;;;;;;5058419;28;19909;-79
2024/03/03 00:15:05;;;;;;;;;;;;;;;;;;5053226;28;19908;-79
2024/03/03 00:17:31;;;;;;;;;;;;;;;;;;5056438;28;19909;-79
2024/03/03 00:19:56;;;;;;;;;;;;;;;;;;5051756;28;20283;-79
2024/03/03 00:22:22;;;;;;;;;;;;;;;;;;5051654;28;19989;-79
2024/03/03 00:24:48;;;;;;;;;;;;;;;;;;5050870;28;19913;-80
2024/03/03 00:27:14;;;;;;;;;;;;;;;;;;5051474;28;19916;-80
2024/03/03 00:29:40;;;;;;;;;;;;;;;;;;5050720;28;19924;-79
2024/03/03 00:32:06;;;;;;;;;;;;;;;;;;5051424;28;19909;-79
2024/03/03 00:34:32;;;;;;;;;;;;;;;;;;5050820;28;19909;-79
2024/03/03 00:36:57;;;;;;;;;;;;;;;;;;5048047;28;19921;-79
2024/03/03 00:39:23;;;;;;;;;;;;;;;;;;5047576;28;19975;-80
2024/03/03 00:41:49;;;;;;;;;;;;;;;;;;5050979;28;19919;-79
2024/03/03 00:44:15;;;;;;;;;;;;;;;;;;5050898;28;19921;-80
2024/03/03 00:46:41;;;;;;;;;;;;;;;;;;5050957;28;20410;-79
2024/03/03 00:49:06;;;;;;;;;;;;;;;;;;5049518;28;20543;-79
2024/03/03 00:51:32;;;;;;;;;;;;;;;;;;5045747;28;20294;-79
2024/03/03 00:53:58;;;;;;;;;;;;;;;;;;5050832;28;20268;-79
2024/03/03 00:56:24;;;;;;;;;;;;;;;;;;5044795;28;19913;-79
2024/03/03 00:58:50;;;;;;;;;;;;;;;;;;5048040;28;20242;-80
2024/03/03 01:01:17;;;;;;;;;;;;;;;;;;5047948;28;19939;-79
2024/03/03 01:03:43;;;;;;;;;;;;;;;;;;5038426;28;19917;-79
2024/03/03 01:06:09;;;;;;;;;;;;;;;;;;5036846;28;19914;-78
2024/03/03 01:08:35;;;;;;;;;;;;;;;;;;5042887;28;19967;-79
2024/03/03 01:11:01;;;;;;;;;;;;;;;;;;5046003;28;19932;-79
2024/03/03 01:13:27;;;;;;;;;;;;;;;;;;5049114;28;19975;-79
2024/03/03 01:15:53;;;;;;;;;;;;;;;;;;5043916;28;19917;-79
2024/03/03 01:18:18;;;;;;;;;;;;;;;;;;5043642;28;19921;-79
2024/03/03 01:20:44;;;;;;;;;;;;;;;;;;5061458;28;19909;-79
2024/03/03 01:23:10;;;;;;;;;;;;;;;;;;5050306;28;19920;-79
2024/03/03 01:25:36;;;;;;;;;;;;;;;;;;5050012;28;19917;-78
2024/03/03 01:28:02;;;;;;;;;;;;;;;;;;5044428;28;19912;-78
2024/03/03 01:30:28;;;;;;;;;;;;;;;;;;5037942;28;19996;-78
2024/03/03 01:32:53;;;;;;;;;;;;;;;;;;5042570;28;19920;-78
2024/03/03 01:35:19;;;;;;;;;;;;;;;;;;5046990;28;19912;-79
2024/03/03 01:37:45;;;;;;;;;;;;;;;;;;5043698;28;19967;-78
2024/03/03 01:40:12;;;;;;;;;;;;;;;;;;5044869;28;20419;-78
2024/03/03 01:42:38;;;;;;;;;;;;;;;;;;5042383;28;19917;-78
2024/03/03 01:45:04;;;;;;;;;;;;;;;;;;5042549;28;19944;-79
2024/03/03 01:47:30;;;;;;;;;;;;;;;;;;5046541;28;19921;-78
2024/03/03 01:49:55;;;;;;;;;;;;;;;;;;5043775;28;19999;-78
2024/03/03 01:52:21;;;;;;;;;;;;;;;;;;5043315;28;19921;-78
2024/03/03 01:54:47;;;;;;;;;;;;;;;;;;5048657;28;20329;-78
2024/03/03 01:57:13;;;;;;;;;;;;;;;;;;5045820;28;20023;-78
2024/03/03 01:59:39;;;;;;;;;;;;;;;;;;5041762;28;19917;-78
2024/03/03 02:02:05;;;;;;;;;;;;;;;;;;5034989;28;19928;-79
2024/03/03 02:04:30;;;;;;;;;;;;;;;;;;5037888;28;19917;-78
2024/03/03 02:06:56;;;;;;;;;;;;;;;;;;5041801;28;19928;-78
2024/03/03 02:09:22;;;;;;;;;;;;;;;;;;5043196;28;19913;-78
2024/03/03 02:11:48;;;;;;;;;;;;;;;;;;5039989;28;20298;-78
2024/03/03 02:14:14;;;;;;;;;;;;;;;;;;5040903;28;19928;-78
2024/03/03 02:16:40;;;;;;;;;;;;;;;;;;5046251;28;19913;-78
2024/03/03 02:19:05;;;;;;;;;;;;;;;;;;5048981;28;20008;-78
2024/03/03 02:21:31;;;;;;;;;;;;;;;;;;5041666;28;19914;-78
2024/03/03 02:23:57;;;;;;;;;;;;;;;;;;5042879;28;19920;-79
2024/03/03 02:26:23;;;;;;;;;;;;;;;;;;5040884;28;19959;-78
2024/03/03 02:28:49;;;;;;;;;;;;;;;;;;5037826;28;20005;-78
2024/03/03 02:31:15;;;;;;;;;;;;;;;;;;5037256;28;19913;-78
2024/03/03 02:33:40;;;;;;;;;;;;;;;;;;5036146;28;19920;-78
2024/03/03 02:36:08;;;;;;;;;;;;;;;;;;5045483;28;19921;-78
2024/03/03 02:38:34;;;;;;;;;;;;;;;;;;5039015;28;19935;-79
2024/03/03 02:41:00;;;;;;;;;;;;;;;;;;5044715;28;19913;-78
2024/03/03 02:43:26;;;;;;;;;;;;;;;;;;5038470;28;19956;-78
2024/03/03 02:45:52;;;;;;;;;;;;;;;;;;5034154;28;19914;-79
2024/03/03 02:48:18;;;;;;;;;;;;;;;;;;5045080;28;19913;-78
2024/03/03 02:50:43;;;;;;;;;;;;;;;;;;5044016;28;20527;-78
2024/03/03 02:53:09;;;;;;;;;;;;;;;;;;5041110;28;20330;-78
2024/03/03 02:55:35;;;;;;;;;;;;;;;;;;5047904;28;20303;-79
2024/03/03 02:58:01;;;;;;;;;;;;;;;;;;5039304;28;19917;-79
2024/03/03 03:00:27;;;;;;;;;;;;;;;;;;5037540;28;19936;-79
2024/03/03 03:02:53;;;;;;;;;;;;;;;;;;5042788;28;19917;-79
2024/03/03 03:05:18;;;;;;;;;;;;;;;;;;5044742;28;19971;-79
2024/03/03 03:07:44;;;;;;;;;;;;;;;;;;5034632;28;19917;-79
2024/03/03 03:10:10;;;;;;;;;;;;;;;;;;5051538;28;19928;-79
2024/03/03 03:12:36;;;;;;;;;;;;;;;;;;5052023;28;20334;-79
2024/03/03 03:15:03;;;;;;;;;;;;;;;;;;5040026;28;19916;-79
2024/03/03 03:17:28;;;;;;;;;;;;;;;;;;5038961;28;19951;-79
2024/03/03 03:19:54;;;;;;;;;;;;;;;;;;5047427;28;19952;-77
2024/03/03 03:22:20;;;;;;;;;;;;;;;;;;5040839;28;19963;-77
2024/03/03 03:24:46;;;;;;;;;;;;;;;;;;5045893;28;19919;-77
2024/03/03 03:27:12;;;;;;;;;;;;;;;;;;5044773;28;20592;-78
2024/03/03 03:29:38;;;;;;;;;;;;;;;;;;5043656;28;19913;-77
2024/03/03 03:32:04;;;;;;;;;;;;;;;;;;5048908;28;19970;-77
2024/03/03 03:34:30;;;;;;;;;;;;;;;;;;5047028;28;19912;-77
2024/03/03 03:36:55;;;;;;;;;;;;;;;;;;5041048;28;19939;-77
2024/03/03 03:39:21;;;;;;;;;;;;;;;;;;5047081;28;20752;-77
2024/03/03 03:41:47;;;;;;;;;;;;;;;;;;5036707;28;19920;-77
2024/03/03 03:44:13;;;;;;;;;;;;;;;;;;5047106;28;19925;-77
2024/03/03 03:46:39;;;;;;;;;;;;;;;;;;5043116;28;19913;-77
2024/03/03 03:49:05;;;;;;;;;;;;;;;;;;5046578;28;20349;-77
2024/03/03 03:51:31;;;;;;;;;;;;;;;;;;5047239;28;19909;-77
2024/03/03 03:53:56;;;;;;;;;;;;;;;;;;5038946;28;19923;-78
2024/03/03 03:56:22;;;;;;;;;;;;;;;;;;5051169;28;20356;-78
2024/03/03 03:58:48;;;;;;;;;;;;;;;;;;5041598;28;20286;-77
2024/03/03 04:01:14;;;;;;;;;;;;;;;;;;5048174;28;19920;-78
2024/03/03 04:03:40;;;;;;;;;;;;;;;;;;5047196;28;19917;-78
2024/03/03 04:06:06;;;;;;;;;;;;;;;;;;5047802;28;19920;-79
2024/03/03 04:08:31;;;;;;;;;;;;;;;;;;5045152;28;19948;-79
2024/03/03 04:10:58;;;;;;;;;;;;;;;;;;5038109;28;19921;-79
2024/03/03 04:13:24;;;;;;;;;;;;;;;;;;5040389;28;19909;-78
2024/03/03 04:15:50;;;;;;;;;;;;;;;;;;5040989;28;20000;-79
2024/03/03 04:18:16;;;;;;;;;;;;;;;;;;5043236;28;19921;-78
2024/03/03 04:20:42;;;;;;;;;;;;;;;;;;5047353;28;19923;-78
2024/03/03 04:23:08;;;;;;;;;;;;;;;;;;5041124;28;19922;-78
2024/03/03 04:25:34;;;;;;;;;;;;;;;;;;5045754;28;19925;-78
2024/03/03 04:28:00;;;;;;;;;;;;;;;;;;5037281;28;19944;-78
2024/03/03 04:30:25;;;;;;;;;;;;;;;;;;5055512;28;19987;-78
2024/03/03 04:32:51;;;;;;;;;;;;;;;;;;5047646;28;19913;-78
2024/03/03 04:35:17;;;;;;;;;;;;;;;;;;5041251;28;19942;-78
2024/03/03 04:37:43;;;;;;;;;;;;;;;;;;5043664;28;20363;-79
2024/03/03 04:40:09;;;;;;;;;;;;;;;;;;5049092;28;19913;-79
2024/03/03 04:42:35;;;;;;;;;;;;;;;;;;5048128;28;19963;-79
2024/03/03 04:45:01;;;;;;;;;;;;;;;;;;5045270;28;20007;-77
2024/03/03 04:47:26;;;;;;;;;;;;;;;;;;5042136;28;19923;-77
2024/03/03 04:49:52;;;;;;;;;;;;;;;;;;5037108;28;19913;-77
2024/03/03 04:52:18;;;;;;;;;;;;;;;;;;5037393;28;19913;-77
2024/03/03 04:54:44;;;;;;;;;;;;;;;;;;5037378;28;19914;-77
2024/03/03 04:57:10;;;;;;;;;;;;;;;;;;5053044;28;19920;-77
2024/03/03 04:59:36;;;;;;;;;;;;;;;;;;5042131;28;19916;-77
2024/03/03 05:02:03;;;;;;;;;;;;;;;;;;5050323;28;20702;-77
2024/03/03 05:04:29;;;;;;;;;;;;;;;;;;5041223;28;20362;-77
2024/03/03 05:06:55;;;;;;;;;;;;;;;;;;5048849;28;20007;-77
2024/03/03 05:09:21;;;;;;;;;;;;;;;;;;5050030;28;19909;-78
2024/03/03 05:11:47;;;;;;;;;;;;;;;;;;5049622;28;20026;-77
2024/03/03 05:14:12;;;;;;;;;;;;;;;;;;5048834;28;19995;-77
2024/03/03 05:16:38;;;;;;;;;;;;;;;;;;5047968;28;19912;-77
2024/03/03 05:19:04;;;;;;;;;;;;;;;;;;5048659;28;20015;-77
2024/03/03 05:21:30;;;;;;;;;;;;;;;;;;5048156;28;19912;-77
2024/03/03 05:23:56;;;;;;;;;;;;;;;;;;5048986;28;20497;-77
2024/03/03 05:26:23;;;;;;;;;;;;;;;;;;5045631;28;20293;-77
2024/03/03 05:28:50;;;;;;;;;;;;;;;;;;5043284;28;19939;-77
2024/03/03 05:31:16;;;;;;;;;;;;;;;;;;5040986;28;19944;-77
2024/03/03 05:33:42;;;;;;;;;;;;;;;;;;5049941;28;20398;-77
2024/03/03 05:36:07;;;;;;;;;;;;;;;;;;5044015;28;19917;-77
2024/03/03 05:38:33;;;;;;;;;;;;;;;;;;5049446;28;19921;-77
2024/03/03 05:40:59;;;;;;;;;;;;;;;;;;5047650;28;19945;-77
2024/03/03 05:43:25;;;;;;;;;;;;;;;;;;5044550;28;19924;-77
2024/03/03 05:45:51;;;;;;;;;;;;;;;;;;5040674;28;20003;-77
2024/03/03 05:48:17;;;;;;;;;;;;;;;;;;5044482;28;19917;-77
2024/03/03 05:50:43;;;;;;;;;;;;;;;;;;5045501;28;20011;-77
2024/03/03 05:53:09;;;;;;;;;;;;;;;;;;5043028;28;19968;-76
2024/03/03 05:55:36;;;;;;;;;;;;;;;;;;5042178;28;19917;-76
2024/03/03 05:58:01;;;;;;;;;;;;;;;;;;5034077;28;19920;-76
2024/03/03 06:00:27;;;;;;;;;;;;;;;;;;5043920;28;19925;-76
2024/03/03 06:02:53;;;;;;;;;;;;;;;;;;5044891;28;19923;-76
2024/03/03 06:05:19;;;;;;;;;;;;;;;;;;5045309;28;19970;-76
2024/03/03 06:07:45;;;;;;;;;;;;;;;;;;5048276;28;19913;-76
2024/03/03 06:10:11;;;;;;;;;;;;;;;;;;5047454;28;19916;-77
2024/03/03 06:12:36;;;;;;;;;;;;;;;;;;5048915;28;20134;-76
2024/03/03 06:15:02;;;;;;;;;;;;;;;;;;5046702;28;19924;-76
2024/03/03 06:17:28;;;;;;;;;;;;;;;;;;5033684;28;19917;-77
2024/03/03 06:19:55;;;;;;;;;;;;;;;;;;5045097;28;20469;-76
2024/03/03 06:22:21;;;;;;;;;;;;;;;;;;5048957;28;19913;-76
2024/03/03 06:24:47;;;;;;;;;;;;;;;;;;5040020;28;19921;-76
2024/03/03 06:27:15;;;;;;;;;;;;;;;;;;5046139;28;22274;-76
2024/03/03 06:29:41;;;;;;;;;;;;;;;;;;5051185;28;19920;-76
2024/03/03 06:32:07;;;;;;;;;;;;;;;;;;5050995;28;19924;-78
2024/03/03 06:34:33;;;;;;;;;;;;;;;;;;5046802;28;19952;-78
2024/03/03 06:37:01;;;;;;;;;;;;;;;;;;5068939;28;20366;-77
2024/03/03 06:39:26;;;;;;;;;;;;;;;;;;5066415;28;19912;-77
2024/03/03 06:41:52;;;;;;;;;;;;;;;;;;5043349;28;20579;-76
2024/03/03 06:44:18;;;;;;;;;;;;;;;;;;5053711;28;20260;-76
2024/03/03 06:46:45;;;;;;;;;;;;;;;;;;5054323;28;19931;-76
2024/03/03 06:49:10;;;;;;;;;;;;;;;;;;5046990;28;19963;-77
2024/03/03 06:51:37;;;;;;;;;;;;;;;;;;5048682;28;19955;-77
2024/03/03 06:54:03;;;;;;;;;;;;;;;;;;5048459;28;19909;-77
2024/03/03 06:56:29;;;;;;;;;;;;;;;;;;5047008;28;19936;-77
2024/03/03 06:58:55;;;;;;;;;;;;;;;;;;5045393;28;19909;-78
2024/03/03 07:01:20;;;;;;;;;;;;;;;;;;5045592;28;20011;-77
2024/03/03 07:04:02;;;;;;;;;;;;;;;;;;5045410;28;19920;-77
2024/03/03 07:06:28;;;;;;;;;;;;;;;;;;5038505;28;20575;-78
2024/03/03 07:08:54;;;;;;;;;;;;;;;;;;5044558;28;20039;-78
2024/03/03 07:11:20;;;;;;;;;;;;;;;;;;5042551;28;20382;-78
2024/03/03 07:13:46;;;;;;;;;;;;;;;;;;5037720;28;19909;-78
2024/03/03 07:16:12;;;;;;;;;;;;;;;;;;5042241;28;20440;-77
2024/03/03 07:18:38;;;;;;;;;;;;;;;;;;5048857;28;20310;-77
2024/03/03 07:21:04;;;;;;;;;;;;;;;;;;5044753;28;19912;-79
2024/03/03 07:23:30;;;;;;;;;;;;;;;;;;5043622;28;19917;-78
2024/03/03 07:25:56;;;;;;;;;;;;;;;;;;5047985;28;19924;-78
2024/03/03 07:28:21;;;;;;;;;;;;;;;;;;5052230;28;20424;-78
2024/03/03 07:30:47;;;;;;;;;;;;;;;;;;5053635;28;19975;-78
2024/03/03 07:33:13;;;;;;;;;;;;;;;;;;5044530;28;19919;-78
2024/03/03 07:35:39;;;;;;;;;;;;;;;;;;5046353;28;19912;-78
2024/03/03 07:38:05;;;;;;;;;;;;;;;;;;5049963;28;19962;-78
2024/03/03 07:40:36;;;;;;;;;;;;;;;;;;5046071;28;19913;-78
2024/03/03 07:43:02;;;;;;;;;;;;;;;;;;5051832;28;19978;-78
2024/03/03 07:45:28;;;;;;;;;;;;;;;;;;5044829;28;19917;-76
2024/03/03 07:47:54;;;;;;;;;;;;;;;;;;5046657;28;19916;-76
2024/03/03 07:50:20;;;;;;;;;;;;;;;;;;5047657;28;19920;-76
2024/03/03 07:52:46;;;;;;;;;;;;;;;;;;5053663;28;20008;-76
2024/03/03 07:55:11;;;;;;;;;;;;;;;;;;5049426;28;19966;-76
2024/03/03 07:57:37;;;;;;;;;;;;;;;;;;5047448;28;19917;-78
2024/03/03 08:00:06;;;;;;;;;;;;;;;;;;5048738;28;19916;-77
2024/03/03 08:02:32;;;;;;;;;;;;;;;;;;5038706;28;19943;-76
2024/03/03 08:04:58;;;;;;;;;;;;;;;;;;5058519;28;19921;-76
2024/03/03 08:07:24;;;;;;;;;;;;;;;;;;5042478;28;20363;-77
2024/03/03 08:09:50;;;;;;;;;;;;;;;;;;5044861;28;19969;-77
2024/03/03 08:12:16;;;;;;;;;;;;;;;;;;5051859;28;19913;-77
2024/03/03 08:14:42;;;;;;;;;;;;;;;;;;5048767;28;19921;-77
2024/03/03 08:17:08;;;;;;;;;;;;;;;;;;5045884;28;19940;-77
2024/03/03 08:19:34;;;;;;;;;;;;;;;;;;5051524;28;19978;-77
2024/03/03 08:22:00;;;;;;;;;;;;;;;;;;5046558;28;19913;-77
2024/03/03 08:24:26;;;;;;;;;;;;;;;;;;5051101;28;19918;-77
2024/03/03 08:26:52;;;;;;;;;;;;;;;;;;5049819;28;19913;-77
2024/03/03 08:29:18;;;;;;;;;;;;;;;;;;5051087;28;20012;-77
2024/03/03 08:31:44;;;;;;;;;;;;;;;;;;5044675;28;20291;-80
2024/03/03 08:34:10;;;;;;;;;;;;;;;;;;5046411;28;19921;-78
2024/03/03 08:36:36;;;;;;;;;;;;;;;;;;5044946;28;19920;-78
2024/03/03 08:39:03;;;;;;;;;;;;;;;;;;5043371;28;19913;-78
2024/03/03 08:41:29;;;;;;;;;;;;;;;;;;5045371;28;20039;-78
2024/03/03 08:43:55;;;;;;;;;;;;;;;;;;5047537;28;20485;-78
2024/03/03 08:46:20;;;;;;;;;;;;;;;;;;5047867;28;19956;-78
2024/03/03 08:48:46;;;;;;;;;;;;;;;;;;5048425;28;19939;-78
2024/03/03 08:51:13;;;;;;;;;;;;;;;;;;5051316;28;20352;-78
2024/03/03 08:53:39;;;;;;;;;;;;;;;;;;5050674;28;20294;-78
2024/03/03 08:56:05;;;;;;;;;;;;;;;;;;5049923;28;19917;-78
2024/03/03 08:58:31;;;;;;;;;;;;;;;;;;5052817;28;20294;-77
2024/03/03 09:00:56;;;;;;;;;;;;;;;;;;5049138;28;19913;-77
2024/03/03 09:03:22;;;;;;;;;;;;;;;;;;5048696;28;19939;-77
2024/03/03 09:05:48;;;;;;;;;;;;;;;;;;5049367;28;20058;-77
2024/03/03 09:08:14;;;;;;;;;;;;;;;;;;5048521;28;19917;-78
2024/03/03 09:10:40;;;;;;;;;;;;;;;;;;5043889;28;19919;-77
2024/03/03 09:13:06;;;;;;;;;;;;;;;;;;5042125;28;19916;-77
2024/03/03 09:15:31;;;;;;;;;;;;;;;;;;5041360;28;19984;-78
2024/03/03 09:17:57;;;;;;;;;;;;;;;;;;5054716;28;19917;-77
2024/03/03 09:20:23;;;;;;;;;;;;;;;;;;5047889;28;20466;-78
2024/03/03 09:22:49;;;;;;;;;;;;;;;;;;5050114;28;19952;-78
2024/03/03 09:25:15;;;;;;;;;;;;;;;;;;5049528;28;19944;-78
2024/03/03 09:27:41;;;;;;;;;;;;;;;;;;5044078;28;19913;-78
2024/03/03 09:30:07;;;;;;;;;;;;;;;;;;5045197;28;19982;-77
2024/03/03 09:32:33;;;;;;;;;;;;;;;;;;5041806;28;19916;-78
2024/03/03 09:34:59;;;;;;;;;;;;;;;;;;5047882;28;20356;-78
2024/03/03 09:37:24;;;;;;;;;;;;;;;;;;5046190;28;20298;-79
2024/03/03 09:39:50;;;;;;;;;;;;;;;;;;5039077;28;20072;-77
2024/03/03 09:42:16;;;;;;;;;;;;;;;;;;5048176;28;19912;-75
2024/03/03 09:44:42;;;;;;;;;;;;;;;;;;5042392;28;20441;-84
2024/03/03 09:47:08;;;;;;;;;;;;;;;;;;5052057;28;19967;-76
2024/03/03 09:49:34;;;;;;;;;;;;;;;;;;5046677;28;19917;-78
2024/03/03 09:52:00;;;;;;;;;;;;;;;;;;5036330;28;20011;-77
2024/03/03 09:54:26;;;;;;;;;;;;;;;;;;5049479;28;19912;-77
2024/03/03 09:56:51;;;;;;;;;;;;;;;;;;5040568;28;20659;-76
2024/03/03 09:59:18;;;;;;;;;;;;;;;;;;5047398;28;19913;-76
2024/03/03 10:01:43;;;;;;;;;;;;;;;;;;5035648;28;19935;-76
2024/03/03 10:04:09;;;;;;;;;;;;;;;;;;5041259;28;19920;-77
2024/03/03 10:06:35;;;;;;;;;;;;;;;;;;5042197;28;20294;-76
2024/03/03 10:09:01;;;;;;;;;;;;;;;;;;5047095;28;19917;-76
2024/03/03 10:11:27;;;;;;;;;;;;;;;;;;5049860;28;20007;-76
2024/03/03 10:13:53;;;;;;;;;;;;;;;;;;5047247;28;20264;-76
2024/03/03 10:16:19;;;;;;;;;;;;;;;;;;5042812;28;20275;-75
2024/03/03 10:18:45;;;;;;;;;;;;;;;;;;5047905;28;19920;-75
2024/03/03 10:21:12;;;;;;;;;;;;;;;;;;5045459;28;19912;-75
2024/03/03 10:23:38;;;;;;;;;;;;;;;;;;5035790;28;19923;-76
2024/03/03 10:26:04;;;;;;;;;;;;;;;;;;5047443;28;19913;-75
2024/03/03 10:28:30;;;;;;;;;;;;;;;;;;5052133;28;19983;-75
2024/03/03 10:30:56;;;;;;;;;;;;;;;;;;5046216;28;19996;-75
2024/03/03 10:33:22;;;;;;;;;;;;;;;;;;5048723;28;20294;-75
2024/03/03 10:35:48;;;;;;;;;;;;;;;;;;5046845;28;20299;-75
2024/03/03 10:38:13;;;;;;;;;;;;;;;;;;5055397;28;19916;-75
2024/03/03 10:40:39;;;;;;;;;;;;;;;;;;5044423;28;19935;-76
2024/03/03 10:43:05;;;;;;;;;;;;;;;;;;5048404;28;19968;-76
2024/03/03 10:45:31;;;;;;;;;;;;;;;;;;5043387;28;19917;-79
2024/03/03 10:47:57;;;;;;;;;;;;;;;;;;5044329;28;19925;-76
2024/03/03 10:50:23;;;;;;;;;;;;;;;;;;5037179;28;20267;-76
2024/03/03 10:52:48;;;;;;;;;;;;;;;;;;5046480;28;20008;-76
2024/03/03 10:55:14;;;;;;;;;;;;;;;;;;5043892;28;19920;-76
2024/03/03 10:57:40;;;;;;;;;;;;;;;;;;5046371;28;19966;-75
2024/03/03 11:00:11;;;;;;;;;;;;;;;;;;5044879;28;19913;-75
2024/03/03 11:02:37;;;;;;;;;;;;;;;;;;5043840;28;20008;-75
2024/03/03 11:05:03;;;;;;;;;;;;;;;;;;5043597;28;20423;-75
2024/03/03 11:07:29;;;;;;;;;;;;;;;;;;5044759;28;19921;-76
2024/03/03 11:09:55;;;;;;;;;;;;;;;;;;5041858;28;19916;-75
2024/03/03 11:12:21;;;;;;;;;;;;;;;;;;5044036;28;19921;-76
2024/03/03 11:14:47;;;;;;;;;;;;;;;;;;5042686;28;19928;-75
2024/03/03 11:17:13;;;;;;;;;;;;;;;;;;5045170;28;19969;-76
2024/03/03 11:19:39;;;;;;;;;;;;;;;;;;5045229;28;19982;-75
2024/03/03 11:22:04;;;;;;;;;;;;;;;;;;5042944;28;19999;-76
2024/03/03 11:24:30;;;;;;;;;;;;;;;;;;5044167;28;19931;-77
2024/03/03 11:26:56;;;;;;;;;;;;;;;;;;5044250;28;20431;-77
2024/03/03 11:29:22;;;;;;;;;;;;;;;;;;5043829;28;20007;-76
2024/03/03 11:31:48;;;;;;;;;;;;;;;;;;5042757;28;19967;-76
2024/03/03 11:34:15;;;;;;;;;;;;;;;;;;5045659;28;19974;-76
2024/03/03 11:36:40;;;;;;;;;;;;;;;;;;5049973;28;19912;-76
2024/03/03 11:39:09;;;;;;;;;;;;;;;;;;5047662;28;19920;-76
2024/03/03 11:41:38;;;;;;;;;;;;;;;;;;5049872;28;19932;-76
2024/03/03 11:44:04;;;;;;;;;;;;;;;;;;5049944;28;19913;-76
2024/03/03 11:46:31;;;;;;;;;;;;;;;;;;5045773;28;20260;-76
2024/03/03 11:48:57;;;;;;;;;;;;;;;;;;5049329;28;19921;-80
2024/03/03 11:51:24;;;;;;;;;;;;;;;;;;5050774;28;19920;-77
2024/03/03 11:53:49;;;;;;;;;;;;;;;;;;5049797;28;19921;-76
2024/03/03 11:56:15;;;;;;;;;;;;;;;;;;5045607;28;19928;-76
2024/03/03 11:58:43;;;;;;;;;;;;;;;;;;5047933;28;19959;-76
2024/03/03 12:01:12;;;;;;;;;;;;;;;;;;5047444;28;19912;-76
2024/03/03 12:03:38;;;;;;;;;;;;;;;;;;5048551;28;19925;-76
2024/03/03 12:06:04;;;;;;;;;;;;;;;;;;5047535;28;20333;-75
2024/03/03 12:08:30;;;;;;;;;;;;;;;;;;5049304;28;20026;-76
2024/03/03 12:10:55;;;;;;;;;;;;;;;;;;5047944;28;20027;-75
2024/03/03 12:13:21;;;;;;;;;;;;;;;;;;5050388;28;19923;-76
2024/03/03 12:15:47;;;;;;;;;;;;;;;;;;5048387;28;20024;-75
2024/03/03 12:18:13;;;;;;;;;;;;;;;;;;5033994;28;19924;-76
2024/03/03 12:20:40;;;;;;;;;;;;;;;;;;5041663;28;19939;-75
2024/03/03 12:23:06;;;;;;;;;;;;;;;;;;5045863;28;20345;-76
2024/03/03 12:25:32;;;;;;;;;;;;;;;;;;5041871;28;19920;-76
2024/03/03 12:27:59;;;;;;;;;;;;;;;;;;5046253;28;20051;-76
2024/03/03 12:30:25;;;;;;;;;;;;;;;;;;5047214;28;20441;-75
2024/03/03 12:32:51;;;;;;;;;;;;;;;;;;5046061;28;19916;-76
2024/03/03 12:35:17;;;;;;;;;;;;;;;;;;5043757;28;19959;-76
2024/03/03 12:37:43;;;;;;;;;;;;;;;;;;5049688;28;19913;-75
2024/03/03 12:40:09;;;;;;;;;;;;;;;;;;5049291;28;19924;-75
2024/03/03 12:42:34;;;;;;;;;;;;;;;;;;5048617;28;20007;-75
2024/03/03 12:45:00;;;;;;;;;;;;;;;;;;5049241;28;19921;-75
2024/03/03 12:47:26;;;;;;;;;;;;;;;;;;5040510;28;19967;-75
2024/03/03 12:49:52;;;;;;;;;;;;;;;;;;5041502;28;19962;-75
2024/03/03 12:52:18;;;;;;;;;;;;;;;;;;5057644;28;19923;-75
2024/03/03 12:54:44;;;;;;;;;;;;;;;;;;5053476;28;19955;-75
2024/03/03 12:57:10;;;;;;;;;;;;;;;;;;5045852;28;20310;-76
2024/03/03 12:59:35;;;;;;;;;;;;;;;;;;5048772;28;20470;-75
2024/03/03 13:02:01;;;;;;;;;;;;;;;;;;5040397;28;19913;-75
2024/03/03 13:04:27;;;;;;;;;;;;;;;;;;5053900;28;19921;-76
2024/03/03 13:06:53;;;;;;;;;;;;;;;;;;5051595;28;19920;-76
2024/03/03 13:09:19;;;;;;;;;;;;;;;;;;5052759;28;19924;-75
2024/03/03 13:11:45;;;;;;;;;;;;;;;;;;5062779;28;19916;-76
2024/03/03 13:14:11;;;;;;;;;;;;;;;;;;5054196;28;19986;-75
2024/03/03 13:16:37;;;;;;;;;;;;;;;;;;5039657;28;19921;-75
2024/03/03 13:19:03;;;;;;;;;;;;;;;;;;5046672;28;20383;-75
2024/03/03 13:21:29;;;;;;;;;;;;;;;;;;5048469;28;19921;-75
2024/03/03 13:23:55;;;;;;;;;;;;;;;;;;5047266;28;20380;-75
2024/03/03 13:26:21;;;;;;;;;;;;;;;;;;5048729;28;20276;-75
2024/03/03 13:28:48;;;;;;;;;;;;;;;;;;5048171;28;19917;-75
2024/03/03 13:31:14;;;;;;;;;;;;;;;;;;5047002;28;19919;-75
2024/03/03 13:33:40;;;;;;;;;;;;;;;;;;5047319;28;19912;-76
2024/03/03 13:36:08;;;;;;;;;;;;;;;;;;5047231;28;19921;-75
2024/03/03 13:38:34;;;;;;;;;;;;;;;;;;5047046;28;19997;-75
2024/03/03 13:41:00;;;;;;;;;;;;;;;;;;5048459;28;19913;-76
2024/03/03 13:43:26;;;;;;;;;;;;;;;;;;5047977;28;19924;-77
2024/03/03 13:45:52;;;;;;;;;;;;;;;;;;5046274;28;19960;-77
2024/03/03 13:48:18;;;;;;;;;;;;;;;;;;5045058;28;20381;-78
2024/03/03 13:50:44;;;;;;;;;;;;;;;;;;5048739;28;19922;-75
2024/03/03 13:53:10;;;;;;;;;;;;;;;;;;5045787;28;20373;-76
2024/03/03 13:55:35;;;;;;;;;;;;;;;;;;5038940;28;20842;-75
2024/03/03 13:58:01;;;;;;;;;;;;;;;;;;5038181;28;19913;-77
2024/03/03 14:00:28;;;;;;;;;;;;;;;;;;5038629;28;19921;-76
2024/03/03 14:02:54;;;;;;;;;;;;;;;;;;5034676;28;19943;-76
2024/03/03 14:05:20;;;;;;;;;;;;;;;;;;5034910;28;19921;-75
2024/03/03 14:07:46;;;;;;;;;;;;;;;;;;5048637;28;19944;-74
2024/03/03 14:10:12;;;;;;;;;;;;;;;;;;5046769;28;19913;-77
2024/03/03 14:12:38;;;;;;;;;;;;;;;;;;5048272;28;19931;-75
2024/03/03 14:15:05;;;;;;;;;;;;;;;;;;5043732;28;19913;-74
2024/03/03 14:17:31;;;;;;;;;;;;;;;;;;5036449;28;19917;-77
2024/03/03 14:19:57;;;;;;;;;;;;;;;;;;5046898;28;19930;-76
2024/03/03 14:22:23;;;;;;;;;;;;;;;;;;5045096;28;20004;-77
2024/03/03 14:24:49;;;;;;;;;;;;;;;;;;5044693;28;20007;-76
2024/03/03 14:27:14;;;;;;;;;;;;;;;;;;5045244;28;19924;-76
2024/03/03 14:29:40;;;;;;;;;;;;;;;;;;5046249;28;19913;-76
2024/03/03 14:32:06;;;;;;;;;;;;;;;;;;5046400;28;20769;-76
2024/03/03 14:34:32;;;;;;;;;;;;;;;;;;5044817;28;19912;-75
2024/03/03 14:36:58;;;;;;;;;;;;;;;;;;5043649;28;19948;-75
2024/03/03 14:39:24;;;;;;;;;;;;;;;;;;5044033;28;19921;-73
2024/03/03 14:41:50;;;;;;;;;;;;;;;;;;5045568;28;19970;-75
2024/03/03 14:44:16;;;;;;;;;;;;;;;;;;5045491;28;19994;-75
2024/03/03 14:46:42;;;;;;;;;;;;;;;;;;5046578;28;19948;-77
2024/03/03 14:49:07;;;;;;;;;;;;;;;;;;5041457;28;19924;-77
2024/03/03 14:51:34;;;;;;;;;;;;;;;;;;5045268;28;20311;-77
2024/03/03 14:54:00;;;;;;;;;;;;;;;;;;5042270;28;20019;-77
2024/03/03 14:56:26;;;;;;;;;;;;;;;;;;5046442;28;19995;-77
2024/03/03 14:58:52;;;;;;;;;;;;;;;;;;5046210;28;19912;-80
2024/03/03 15:01:18;;;;;;;;;;;;;;;;;;5042363;28;20367;-77
2024/03/03 15:03:44;;;;;;;;;;;;;;;;;;5042653;28;20011;-77
2024/03/03 15:06:10;;;;;;;;;;;;;;;;;;5044761;28;19913;-75
2024/03/03 15:08:36;;;;;;;;;;;;;;;;;;5045860;28;19916;-77
2024/03/03 15:11:02;;;;;;;;;;;;;;;;;;5044819;28;19940;-77
2024/03/03 15:13:28;;;;;;;;;;;;;;;;;;5042985;28;19917;-76
2024/03/03 15:15:54;;;;;;;;;;;;;;;;;;5044477;28;20867;-77
2024/03/03 15:18:20;;;;;;;;;;;;;;;;;;5046326;28;19951;-77
2024/03/03 15:20:46;;;;;;;;;;;;;;;;;;5050541;28;19913;-77
2024/03/03 15:23:12;;;;;;;;;;;;;;;;;;5040730;28;19925;-77
2024/03/03 15:25:38;;;;;;;;;;;;;;;;;;5041062;28;19917;-77
2024/03/03 15:28:04;;;;;;;;;;;;;;;;;;5041579;28;19936;-76
2024/03/03 15:30:30;;;;;;;;;;;;;;;;;;5050996;28;20051;-77
2024/03/03 15:32:55;;;;;;;;;;;;;;;;;;5045260;28;20351;-76
2024/03/03 15:35:21;;;;;;;;;;;;;;;;;;5051457;28;19932;-75
2024/03/03 15:37:47;;;;;;;;;;;;;;;;;;5045688;28;19917;-75
2024/03/03 15:40:14;;;;;;;;;;;;;;;;;;5034656;28;19939;-76
2024/03/03 15:42:40;;;;;;;;;;;;;;;;;;5040655;28;20002;-76
2024/03/03 15:45:06;;;;;;;;;;;;;;;;;;5043732;28;20003;-76
2024/03/03 15:47:32;;;;;;;;;;;;;;;;;;5035573;28;19940;-74
2024/03/03 15:49:58;;;;;;;;;;;;;;;;;;5040781;28;20322;-74
2024/03/03 15:52:24;;;;;;;;;;;;;;;;;;5041028;28;19956;-74
2024/03/03 15:54:50;;;;;;;;;;;;;;;;;;5045232;28;20440;-75
2024/03/03 15:57:16;;;;;;;;;;;;;;;;;;5047798;28;19913;-74
2024/03/03 15:59:42;;;;;;;;;;;;;;;;;;5052989;28;20028;-76
2024/03/03 16:02:07;;;;;;;;;;;;;;;;;;5044478;28;19921;-75
2024/03/03 16:04:33;;;;;;;;;;;;;;;;;;5042995;28;19923;-76
2024/03/03 16:07:00;;;;;;;;;;;;;;;;;;5046032;28;19917;-76
2024/03/03 16:09:26;;;;;;;;;;;;;;;;;;5041662;28;19971;-76
2024/03/03 16:11:51;;;;;;;;;;;;;;;;;;5058559;28;20369;-79
2024/03/03 16:14:17;;;;;;;;;;;;;;;;;;5042394;28;20011;-75
2024/03/03 16:16:43;;;;;;;;;;;;;;;;;;5043870;28;19913;-75
2024/03/03 16:19:09;;;;;;;;;;;;;;;;;;5042499;28;19950;-75
2024/03/03 16:21:35;;;;;;;;;;;;;;;;;;5048840;28;20050;-76
2024/03/03 16:24:01;;;;;;;;;;;;;;;;;;5036492;28;19917;-75
2024/03/03 16:26:27;;;;;;;;;;;;;;;;;;5045087;28;19917;-75
2024/03/03 16:28:52;;;;;;;;;;;;;;;;;;5047535;28;19929;-75
2024/03/03 16:31:18;;;;;;;;;;;;;;;;;;5045877;28;19967;-76
2024/03/03 16:33:44;;;;;;;;;;;;;;;;;;5049079;28;19912;-75
2024/03/03 16:36:11;;;;;;;;;;;;;;;;;;5048536;28;20366;-75